createdAt,value
2018-02-12T00:01:13.431Z,2.80
2018-02-12T00:03:41.277Z,2.93
2018-02-12T00:06:08.877Z,2.70
2018-02-12T00:08:37.234Z,2.60
2018-02-12T00:11:04.841Z,2.40
2018-02-12T00:13:33.695Z,2.83
2018-02-12T00:16:02.200Z,2.53
2018-02-12T00:18:30.712Z,2.60
2018-02-12T00:20:59.102Z,2.53
2018-02-12T00:23:26.679Z,2.30
2018-02-12T00:25:54.307Z,2.20
2018-02-12T00:28:22.011Z,3.23
2018-02-12T00:30:49.770Z,2.43
2018-02-12T00:33:17.456Z,1.80
2018-02-12T00:35:45.072Z,2.27
2018-02-12T00:38:13.118Z,1.90
2018-02-12T00:40:41.484Z,1.90
2018-02-12T00:43:09.106Z,1.80
2018-02-12T00:45:36.708Z,3.90
2018-02-12T00:48:04.330Z,5.40
2018-02-12T00:50:31.988Z,4.20
2018-02-12T00:52:59.607Z,2.93
2018-02-12T00:55:27.407Z,2.33
2018-02-12T00:57:55.209Z,2.40
2018-02-12T01:00:22.839Z,2.60
2018-02-12T01:02:50.519Z,1.80
2018-02-12T01:05:18.101Z,2.10
2018-02-12T01:07:45.706Z,2.20
2018-02-12T01:10:13.323Z,1.80
2018-02-12T01:12:40.946Z,1.80
2018-02-12T01:15:08.546Z,2.53
2018-02-12T01:17:36.132Z,1.70
2018-02-12T01:20:04.501Z,1.80
2018-02-12T01:22:32.286Z,1.57
2018-02-12T01:25:00.652Z,2.67
2018-02-12T01:27:28.251Z,3.30
2018-02-12T01:29:55.830Z,2.90
2018-02-12T01:32:23.441Z,2.40
2018-02-12T01:34:51.220Z,2.90
2018-02-12T01:37:18.814Z,2.10
2018-02-12T01:39:47.211Z,3.50
2018-02-12T01:42:14.807Z,1.70
2018-02-12T01:44:42.416Z,1.60
2018-02-12T01:47:10.017Z,2.03
2018-02-12T01:49:37.686Z,1.90
2018-02-12T01:52:05.516Z,1.40
2018-02-12T01:54:33.876Z,2.00
2018-02-12T01:57:01.481Z,1.73
2018-02-12T01:59:29.095Z,1.47
2018-02-12T02:01:56.674Z,1.80
2018-02-12T02:04:25.034Z,1.47
2018-02-12T02:06:53.412Z,1.40
2018-02-12T02:09:21.026Z,1.43
2018-02-12T02:11:49.441Z,2.10
2018-02-12T02:14:17.052Z,2.33
2018-02-12T02:16:44.678Z,1.80
2018-02-12T02:19:12.438Z,1.70
2018-02-12T02:21:40.807Z,1.90
2018-02-12T02:24:09.287Z,1.57
2018-02-12T02:26:37.678Z,1.50
2018-02-12T02:29:06.571Z,1.90
2018-02-12T02:31:34.925Z,1.67
2018-02-12T02:34:02.943Z,1.20
2018-02-12T02:36:31.492Z,1.97
2018-02-12T02:38:59.411Z,1.40
2018-02-12T02:41:27.094Z,1.13
2018-02-12T02:43:54.928Z,1.43
2018-02-12T02:46:22.551Z,1.80
2018-02-12T02:48:50.944Z,1.50
2018-02-12T02:51:18.549Z,1.60
2018-02-12T02:53:46.178Z,1.20
2018-02-12T02:56:13.855Z,1.63
2018-02-12T02:58:41.534Z,1.70
2018-02-12T03:01:09.533Z,2.50
2018-02-12T03:03:37.950Z,1.83
2018-02-12T03:06:05.797Z,1.67
2018-02-12T03:08:33.592Z,1.57
2018-02-12T03:11:02.814Z,1.27
2018-02-12T03:13:30.399Z,1.30
2018-02-12T03:15:58.008Z,1.33
2018-02-12T03:18:26.373Z,1.30
2018-02-12T03:20:54.004Z,1.50
2018-02-12T03:23:21.606Z,1.50
2018-02-12T03:25:49.630Z,1.53
2018-02-12T03:28:17.240Z,1.40
2018-02-12T03:30:45.691Z,1.90
2018-02-12T03:33:13.687Z,1.67
2018-02-12T03:35:44.734Z,1.80
2018-02-12T03:38:12.399Z,1.57
2018-02-12T03:40:41.149Z,1.80
2018-02-12T03:43:08.976Z,2.10
2018-02-12T03:45:42.386Z,1.57
2018-02-12T03:48:09.989Z,1.70
2018-02-12T03:50:37.888Z,1.77
2018-02-12T03:53:05.493Z,1.70
2018-02-12T03:55:33.280Z,1.60
2018-02-12T03:58:01.135Z,1.60
2018-02-12T04:00:29.718Z,1.93
2018-02-12T04:02:57.351Z,1.83
2018-02-12T04:05:24.981Z,1.60
2018-02-12T04:07:52.604Z,1.63
2018-02-12T04:10:20.231Z,1.60
2018-02-12T04:12:47.982Z,1.53
2018-02-12T04:15:15.683Z,2.17
2018-02-12T04:17:44.086Z,2.10
2018-02-12T04:20:12.452Z,1.40
2018-02-12T04:22:40.125Z,1.90
2018-02-12T04:25:07.879Z,1.70
2018-02-12T04:27:36.286Z,1.50
2018-02-12T04:30:03.891Z,1.40
2018-02-12T04:32:31.526Z,1.50
2018-02-12T04:34:59.105Z,1.60
2018-02-12T04:37:26.718Z,1.70
2018-02-12T04:39:55.227Z,1.83
2018-02-12T04:42:22.850Z,1.90
2018-02-12T04:44:51.212Z,2.00
2018-02-12T04:47:18.909Z,2.10
2018-02-12T04:49:47.293Z,1.87
2018-02-12T04:52:15.210Z,1.80
2018-02-12T04:54:43.008Z,2.13
2018-02-12T04:57:10.636Z,2.00
2018-02-12T04:59:38.985Z,2.00
2018-02-12T05:02:07.000Z,1.80
2018-02-12T05:04:35.206Z,2.00
2018-02-12T05:07:02.988Z,2.27
2018-02-12T05:09:31.423Z,1.93
2018-02-12T05:12:00.292Z,2.20
2018-02-12T05:14:28.033Z,2.77
2018-02-12T05:16:55.795Z,2.20
2018-02-12T05:19:23.791Z,2.10
2018-02-12T05:21:51.863Z,1.50
2018-02-12T05:24:19.930Z,2.80
2018-02-12T05:26:47.515Z,1.67
2018-02-12T05:29:15.189Z,1.93
2018-02-12T05:31:42.909Z,1.80
2018-02-12T05:34:11.021Z,1.53
2018-02-12T05:36:39.023Z,1.93
2018-02-12T05:39:07.429Z,1.50
2018-02-12T05:41:35.512Z,1.90
2018-02-12T05:44:03.376Z,2.10
2018-02-12T05:46:31.869Z,1.80
2018-02-12T05:48:59.473Z,1.50
2018-02-12T05:51:27.082Z,1.70
2018-02-12T05:53:54.723Z,2.03
2018-02-12T05:56:22.446Z,1.70
2018-02-12T05:58:51.491Z,1.90
2018-02-12T06:01:19.462Z,1.67
2018-02-12T06:03:47.096Z,1.57
2018-02-12T06:06:15.474Z,1.40
2018-02-12T06:08:44.946Z,1.60
2018-02-12T06:11:13.293Z,1.60
2018-02-12T06:13:40.980Z,1.90
2018-02-12T06:16:09.450Z,1.70
2018-02-12T06:18:37.827Z,1.80
2018-02-12T06:21:07.303Z,1.53
2018-02-12T06:23:34.916Z,2.27
2018-02-12T06:26:02.506Z,2.47
2018-02-12T06:28:30.209Z,2.10
2018-02-12T06:30:57.863Z,3.00
2018-02-12T06:33:25.498Z,1.80
2018-02-12T06:35:53.308Z,1.73
2018-02-12T06:38:21.205Z,1.67
2018-02-12T06:40:48.974Z,1.60
2018-02-12T06:43:17.362Z,1.77
2018-02-12T06:45:46.703Z,2.00
2018-02-12T06:48:14.328Z,1.80
2018-02-12T06:50:43.312Z,1.80
2018-02-12T06:53:11.289Z,2.70
2018-02-12T06:55:41.946Z,2.23
2018-02-12T06:58:10.311Z,3.03
2018-02-12T07:00:37.953Z,1.90
2018-02-12T07:03:05.534Z,1.90
2018-02-12T07:05:33.172Z,2.00
2018-02-12T07:08:02.573Z,2.00
2018-02-12T07:10:31.955Z,1.70
2018-02-12T07:13:00.405Z,2.10
2018-02-12T07:15:28.775Z,1.63
2018-02-12T07:18:05.304Z,1.70
2018-02-12T07:20:34.423Z,1.90
2018-02-12T07:23:03.308Z,1.67
2018-02-12T07:25:31.773Z,1.93
2018-02-12T07:28:00.953Z,1.90
2018-02-12T07:30:29.741Z,2.30
2018-02-12T07:32:58.998Z,1.80
2018-02-12T07:35:26.639Z,2.13
2018-02-12T07:37:55.072Z,1.87
2018-02-12T07:40:23.527Z,2.90
2018-02-12T07:42:51.899Z,2.77
2018-02-12T07:45:19.892Z,2.43
2018-02-12T07:47:48.486Z,2.30
2018-02-12T07:50:18.356Z,2.00
2018-02-12T07:52:46.384Z,3.27
2018-02-12T07:55:14.407Z,2.97
2018-02-12T07:57:42.047Z,2.57
2018-02-12T08:00:10.425Z,3.10
2018-02-12T08:02:39.537Z,2.10
2018-02-12T08:05:07.142Z,2.20
2018-02-12T08:07:35.320Z,2.40
2018-02-12T08:10:03.548Z,2.13
2018-02-12T08:12:31.869Z,2.47
2018-02-12T08:15:01.321Z,3.23
2018-02-12T08:17:29.775Z,2.23
2018-02-12T08:19:58.164Z,2.70
2018-02-12T08:22:26.537Z,3.00
2018-02-12T08:24:54.584Z,1.80
2018-02-12T08:27:22.344Z,2.23
2018-02-12T08:29:50.325Z,2.07
2018-02-12T08:32:18.674Z,2.67
2018-02-12T08:34:47.070Z,2.10
2018-02-12T08:37:15.619Z,2.20
2018-02-12T08:39:46.310Z,2.37
2018-02-12T08:42:14.934Z,2.87
2018-02-12T08:44:45.174Z,2.00
2018-02-12T08:47:13.161Z,2.03
2018-02-12T08:49:41.503Z,2.00
2018-02-12T08:52:09.542Z,2.00
2018-02-12T08:54:37.896Z,2.27
2018-02-12T08:57:06.630Z,2.03
2018-02-12T08:59:35.222Z,1.70
2018-02-12T09:02:02.933Z,1.97
2018-02-12T09:04:31.326Z,1.40
2018-02-12T09:07:00.493Z,2.00
2018-02-12T09:09:28.074Z,1.67
2018-02-12T09:11:56.516Z,2.00
2018-02-12T09:14:24.885Z,2.00
2018-02-12T09:16:53.231Z,1.50
2018-02-12T09:19:21.978Z,1.50
2018-02-12T09:21:49.977Z,1.83
2018-02-12T09:24:18.312Z,2.03
2018-02-12T09:26:47.411Z,2.27
2018-02-12T09:29:15.186Z,2.00
2018-02-12T09:31:44.151Z,1.93
2018-02-12T09:34:12.513Z,1.83
2018-02-12T09:36:40.120Z,1.67
2018-02-12T09:39:09.190Z,1.90
2018-02-12T09:41:37.200Z,1.87
2018-02-12T09:44:05.567Z,1.67
2018-02-12T09:46:33.534Z,1.50
2018-02-12T09:49:02.002Z,1.97
2018-02-12T09:51:31.373Z,1.50
2018-02-12T09:54:01.505Z,1.97
2018-02-12T09:56:29.492Z,1.80
2018-02-12T09:58:57.885Z,1.70
2018-02-12T10:01:27.194Z,1.47
2018-02-12T10:03:56.619Z,1.90
2018-02-12T10:06:24.223Z,1.40
2018-02-12T10:08:52.701Z,1.77
2018-02-12T10:11:21.772Z,1.50
2018-02-12T10:13:49.366Z,1.47
2018-02-12T10:16:17.741Z,2.47
2018-02-12T10:18:46.291Z,1.50
2018-02-12T10:21:14.431Z,1.90
2018-02-12T10:23:43.300Z,1.50
2018-02-12T10:26:11.972Z,2.00
2018-02-12T10:28:39.550Z,1.50
2018-02-12T10:31:07.931Z,1.30
2018-02-12T10:33:36.574Z,1.47
2018-02-12T10:36:05.012Z,1.53
2018-02-12T10:38:33.003Z,1.20
2018-02-12T10:41:01.417Z,1.50
2018-02-12T10:43:29.463Z,1.50
2018-02-12T10:45:57.799Z,1.33
2018-02-12T10:48:26.745Z,1.53
2018-02-12T10:50:54.961Z,1.60
2018-02-12T10:53:23.363Z,1.53
2018-02-12T10:55:51.368Z,1.60
2018-02-12T10:58:19.724Z,1.93
2018-02-12T11:00:47.868Z,1.70
2018-02-12T11:03:19.241Z,1.80
2018-02-12T11:05:49.517Z,1.67
2018-02-12T11:08:18.328Z,1.77
2018-02-12T11:10:46.045Z,2.37
2018-02-12T11:13:14.448Z,2.13
2018-02-12T11:15:43.226Z,1.77
2018-02-12T11:18:10.852Z,6.57
2018-02-12T11:20:38.866Z,4.33
2018-02-12T11:23:07.224Z,2.13
2018-02-12T11:25:35.621Z,2.77
2018-02-12T11:28:03.965Z,2.73
2018-02-12T11:30:32.431Z,1.60
2018-02-12T11:33:00.830Z,1.50
2018-02-12T11:35:29.417Z,1.50
2018-02-12T11:37:58.775Z,1.90
2018-02-12T11:40:27.175Z,1.40
2018-02-12T11:42:55.546Z,1.30
2018-02-12T11:45:23.965Z,1.70
2018-02-12T11:47:53.355Z,1.67
2018-02-12T11:50:21.821Z,1.73
2018-02-12T11:52:50.278Z,2.27
2018-02-12T11:55:19.252Z,2.40
2018-02-12T11:57:46.931Z,1.60
2018-02-12T12:00:15.814Z,1.27
2018-02-12T12:02:45.088Z,1.90
2018-02-12T12:05:15.618Z,1.63
2018-02-12T12:07:44.811Z,1.63
2018-02-12T12:10:14.022Z,2.00
2018-02-12T12:12:44.645Z,1.80
2018-02-12T12:15:14.980Z,1.70
2018-02-12T12:17:43.435Z,1.70
2018-02-12T12:20:11.821Z,1.50
2018-02-12T12:22:41.092Z,1.40
2018-02-12T12:25:09.163Z,1.67
2018-02-12T12:27:37.472Z,1.50
2018-02-12T12:30:07.186Z,1.67
2018-02-12T12:32:35.332Z,1.70
2018-02-12T12:35:04.088Z,1.50
2018-02-12T12:37:31.808Z,1.70
2018-02-12T12:40:00.429Z,1.83
2018-02-12T12:42:28.981Z,1.63
2018-02-12T12:44:56.643Z,1.70
2018-02-12T12:47:25.040Z,1.40
2018-02-12T12:49:53.786Z,1.30
2018-02-12T12:52:21.808Z,1.80
2018-02-12T12:54:50.249Z,1.40
2018-02-12T12:57:18.224Z,1.57
2018-02-12T12:59:46.583Z,1.70
2018-02-12T13:02:16.238Z,1.40
2018-02-12T13:04:44.750Z,1.20
2018-02-12T13:07:13.119Z,1.80
2018-02-12T13:09:42.432Z,1.57
2018-02-12T13:12:15.868Z,1.70
2018-02-12T13:14:43.506Z,1.83
2018-02-12T13:17:12.234Z,1.80
2018-02-12T13:19:40.932Z,2.13
2018-02-12T13:22:09.639Z,2.37
2018-02-12T13:24:38.738Z,1.80
2018-02-12T13:27:07.337Z,2.30
2018-02-12T13:29:34.905Z,1.87
2018-02-12T13:32:03.301Z,2.13
2018-02-12T13:34:32.796Z,1.77
2018-02-12T13:37:02.809Z,1.70
2018-02-12T13:39:32.894Z,2.03
2018-02-12T13:42:01.073Z,2.03
2018-02-12T13:44:29.431Z,1.73
2018-02-12T13:46:57.621Z,1.73
2018-02-12T13:49:26.064Z,1.73
2018-02-12T13:51:56.022Z,2.17
2018-02-12T13:54:24.038Z,1.40
2018-02-12T13:56:52.428Z,1.47
2018-02-12T13:59:20.772Z,2.20
2018-02-12T14:01:49.164Z,1.20
2018-02-12T14:04:17.241Z,1.43
2018-02-12T14:06:48.230Z,1.40
2018-02-12T14:09:17.565Z,1.80
2018-02-12T14:11:46.045Z,1.77
2018-02-12T14:14:13.747Z,1.90
2018-02-12T14:16:43.815Z,4.20
2018-02-12T14:19:12.629Z,2.50
2018-02-12T14:21:40.619Z,2.63
2018-02-12T14:24:09.710Z,2.30
2018-02-12T14:26:37.859Z,2.47
2018-02-12T14:29:07.819Z,2.43
2018-02-12T14:31:35.792Z,2.70
2018-02-12T14:34:04.173Z,2.10
2018-02-12T14:36:32.640Z,1.93
2018-02-12T14:39:01.053Z,2.00
2018-02-12T14:41:30.050Z,2.50
2018-02-12T14:43:59.036Z,2.47
2018-02-12T14:46:28.556Z,2.83
2018-02-12T14:48:57.654Z,2.50
2018-02-12T14:51:25.293Z,2.53
2018-02-12T14:53:53.717Z,2.63
2018-02-12T14:56:22.128Z,2.90
2018-02-12T14:58:50.500Z,1.93
2018-02-12T15:01:18.629Z,2.20
2018-02-12T15:03:47.028Z,2.27
2018-02-12T15:06:15.377Z,2.60
2018-02-12T15:08:43.931Z,3.10
2018-02-12T15:11:11.889Z,2.40
2018-02-12T15:13:39.772Z,2.73
2018-02-12T15:16:08.584Z,2.10
2018-02-12T15:18:37.616Z,2.20
2018-02-12T15:21:05.992Z,2.53
2018-02-12T15:23:35.437Z,2.40
2018-02-12T15:26:03.512Z,2.70
2018-02-12T15:28:31.893Z,2.40
2018-02-12T15:31:00.808Z,2.10
2018-02-12T15:33:28.748Z,2.33
2018-02-12T15:35:57.193Z,2.33
2018-02-12T15:38:25.226Z,2.67
2018-02-12T15:40:53.660Z,2.43
2018-02-12T15:43:21.703Z,2.67
2018-02-12T15:45:51.950Z,2.73
2018-02-12T15:48:21.576Z,2.73
2018-02-12T15:50:49.729Z,2.27
2018-02-12T15:53:20.612Z,2.67
2018-02-12T15:55:48.904Z,3.63
2018-02-12T15:58:18.879Z,2.80
2018-02-12T16:00:47.151Z,2.67
2018-02-12T16:03:15.750Z,2.50
2018-02-12T16:05:43.751Z,3.00
2018-02-12T16:08:12.163Z,3.00
2018-02-12T16:10:40.647Z,3.90
2018-02-12T16:13:09.526Z,2.63
2018-02-12T16:15:37.539Z,2.50
2018-02-12T16:18:06.314Z,2.33
2018-02-12T16:20:33.908Z,2.67
2018-02-12T16:23:03.289Z,2.27
2018-02-12T16:25:31.422Z,2.33
2018-02-12T16:28:06.348Z,2.00
2018-02-12T16:30:35.656Z,2.37
2018-02-12T16:33:03.952Z,2.70
2018-02-12T16:35:32.357Z,2.30
2018-02-12T16:38:01.520Z,2.67
2018-02-12T16:40:29.113Z,3.27
2018-02-12T16:42:57.127Z,2.90
2018-02-12T16:45:25.628Z,2.50
2018-02-12T16:47:53.605Z,2.50
2018-02-12T16:50:21.243Z,3.43
2018-02-12T16:52:49.244Z,3.13
2018-02-12T16:55:17.281Z,3.33
2018-02-12T16:57:46.221Z,3.70
2018-02-12T17:00:14.045Z,3.17
2018-02-12T17:02:41.636Z,2.30
2018-02-12T17:05:09.315Z,3.40
2018-02-12T17:07:36.896Z,2.60
2018-02-12T17:10:04.503Z,3.10
2018-02-12T17:12:32.481Z,2.80
2018-02-12T17:15:01.344Z,2.40
2018-02-12T17:17:29.368Z,3.33
2018-02-12T17:19:56.944Z,2.87
2018-02-12T17:22:25.343Z,2.40
2018-02-12T17:24:53.415Z,2.60
2018-02-12T17:27:21.088Z,2.83
2018-02-12T17:29:48.702Z,2.90
2018-02-12T17:32:17.063Z,3.00
2018-02-12T17:34:44.651Z,2.27
2018-02-12T17:37:13.386Z,2.10
2018-02-12T17:39:41.322Z,2.50
2018-02-12T17:42:09.950Z,2.00
2018-02-12T17:44:37.529Z,2.23
2018-02-12T17:47:05.129Z,3.33
2018-02-12T17:49:32.712Z,2.60
2018-02-12T17:52:00.548Z,2.20
2018-02-12T17:54:29.285Z,1.97
2018-02-12T17:56:56.877Z,2.33
2018-02-12T17:59:25.206Z,4.03
2018-02-12T18:01:53.050Z,2.60
2018-02-12T18:04:20.653Z,2.60
2018-02-12T18:06:48.261Z,2.87
2018-02-12T18:09:15.826Z,3.70
2018-02-12T18:11:43.429Z,4.70
2018-02-12T18:14:11.014Z,3.50
2018-02-12T18:16:39.358Z,5.17
2018-02-12T18:19:06.948Z,6.17
2018-02-12T18:21:35.296Z,3.70
2018-02-12T18:24:02.878Z,4.33
2018-02-12T18:26:30.496Z,3.90
2018-02-12T18:28:58.099Z,4.13
2018-02-12T18:31:25.672Z,4.00
2018-02-12T18:33:53.701Z,4.07
2018-02-12T18:36:21.297Z,4.00
2018-02-12T18:38:49.919Z,4.00
2018-02-12T18:41:17.573Z,3.13
2018-02-12T18:43:45.576Z,3.73
2018-02-12T18:46:13.132Z,4.43
2018-02-12T18:48:40.736Z,4.20
2018-02-12T18:51:08.297Z,3.70
2018-02-12T18:53:35.945Z,4.40
2018-02-12T18:56:03.932Z,4.60
2018-02-12T18:58:31.755Z,3.93
2018-02-12T19:00:59.657Z,5.97
2018-02-12T19:03:28.163Z,7.70
2018-02-12T19:05:55.862Z,6.30
2018-02-12T19:08:23.486Z,5.70
2018-02-12T19:10:51.859Z,6.23
2018-02-12T19:13:19.471Z,19.23
2018-02-12T19:15:47.060Z,6.23
2018-02-12T19:18:15.648Z,6.17
2018-02-12T19:20:47.467Z,6.13
2018-02-12T19:23:16.471Z,4.60
2018-02-12T19:25:44.230Z,5.20
2018-02-12T19:28:11.855Z,5.83
2018-02-12T19:30:41.491Z,5.97
2018-02-12T19:33:09.470Z,5.43
2018-02-12T19:35:37.930Z,5.40
2018-02-12T19:38:05.601Z,4.57
2018-02-12T19:40:33.230Z,4.00
2018-02-12T19:43:00.927Z,4.00
2018-02-12T19:45:28.826Z,4.13
2018-02-12T19:48:02.537Z,5.70
2018-02-12T19:50:32.458Z,6.23
2018-02-12T19:53:00.899Z,5.83
2018-02-12T19:55:28.654Z,8.73
2018-02-12T19:57:57.110Z,6.50
2018-02-12T20:00:26.292Z,7.17
2018-02-12T20:02:54.078Z,7.53
2018-02-12T20:05:25.821Z,7.03
2018-02-12T20:07:54.388Z,7.03
2018-02-12T20:10:22.012Z,8.73
2018-02-12T20:12:50.376Z,9.10
2018-02-12T20:15:18.903Z,11.47
2018-02-12T20:17:47.074Z,7.30
2018-02-12T20:20:19.766Z,11.43
2018-02-12T20:22:48.116Z,11.97
2018-02-12T20:25:17.430Z,6.53
2018-02-12T20:27:45.179Z,7.40
2018-02-12T20:30:13.707Z,7.30
2018-02-12T20:32:41.746Z,5.13
2018-02-12T20:35:10.044Z,10.70
2018-02-12T20:37:37.834Z,6.30
2018-02-12T20:40:05.850Z,6.30
2018-02-12T20:42:34.282Z,7.53
2018-02-12T20:45:02.326Z,5.80
2018-02-12T20:47:30.211Z,6.60
2018-02-12T20:49:57.920Z,8.10
2018-02-12T20:52:26.381Z,11.57
2018-02-12T20:54:54.400Z,4.70
2018-02-12T20:57:22.170Z,4.57
2018-02-12T20:59:49.920Z,7.50
2018-02-12T21:02:17.964Z,7.70
2018-02-12T21:04:51.070Z,5.93
2018-02-12T21:07:18.642Z,4.77
2018-02-12T21:09:47.396Z,4.53
2018-02-12T21:12:15.150Z,4.80
2018-02-12T21:14:42.746Z,5.00
2018-02-12T21:17:10.445Z,5.47
2018-02-12T21:19:38.091Z,5.73
2018-02-12T21:22:05.789Z,5.77
2018-02-12T21:24:33.414Z,8.50
2018-02-12T21:27:01.273Z,6.70
2018-02-12T21:29:31.124Z,6.43
2018-02-12T21:32:00.123Z,6.80
2018-02-12T21:34:27.697Z,6.10
2018-02-12T21:36:55.703Z,9.43
2018-02-12T21:39:24.080Z,8.20
2018-02-12T21:41:52.526Z,8.50
2018-02-12T21:44:20.157Z,6.17
2018-02-12T21:46:47.824Z,5.50
2018-02-12T21:52:07.650Z,5.80
2018-02-12T21:54:36.248Z,5.47
2018-02-12T21:57:05.717Z,5.50
2018-02-12T21:59:33.740Z,5.17
2018-02-12T22:02:01.625Z,6.43
2018-02-12T22:04:29.254Z,8.80
2018-02-12T22:06:56.858Z,8.10
2018-02-12T22:09:30.022Z,7.83
2018-02-12T22:12:00.011Z,7.00
2018-02-12T22:14:31.690Z,6.83
2018-02-12T22:17:03.330Z,8.20
2018-02-12T22:19:31.264Z,7.40
2018-02-12T22:22:13.604Z,7.47
2018-02-12T22:24:46.356Z,6.07
2018-02-12T22:27:14.844Z,6.60
2018-02-12T22:29:42.885Z,5.63
2018-02-12T22:32:18.241Z,5.70
2018-02-12T22:34:51.133Z,6.37
2018-02-12T22:37:19.817Z,3.90
2018-02-12T22:39:55.180Z,5.73
2018-02-12T22:42:29.027Z,6.30
2018-02-12T22:45:05.520Z,7.00
2018-02-12T22:47:39.710Z,7.30
2018-02-12T22:50:10.124Z,9.80
2018-02-12T22:52:41.406Z,12.17
2018-02-12T22:55:11.356Z,7.60
2018-02-12T22:57:42.399Z,5.57
2018-02-12T23:00:10.516Z,4.90
2018-02-12T23:02:41.172Z,5.00
2018-02-12T23:05:11.477Z,5.07
2018-02-12T23:07:41.920Z,6.83
2018-02-12T23:10:11.538Z,6.70
2018-02-12T23:12:39.274Z,5.23
2018-02-12T23:15:13.843Z,5.50
2018-02-12T23:17:41.894Z,7.30
2018-02-12T23:20:09.713Z,7.13
2018-02-12T23:22:38.552Z,5.77
2018-02-12T23:25:06.748Z,7.00
2018-02-12T23:27:39.175Z,5.30
2018-02-12T23:30:07.255Z,6.37
2018-02-12T23:32:35.488Z,6.40
2018-02-12T23:35:04.681Z,7.80
2018-02-12T23:37:34.441Z,6.23
2018-02-12T23:40:02.145Z,5.40
2018-02-12T23:42:30.087Z,8.10
2018-02-12T23:44:57.940Z,8.30
2018-02-12T23:47:26.497Z,6.50
2018-02-12T23:49:54.161Z,5.93
2018-02-12T23:52:22.041Z,5.00
2018-02-12T23:54:50.529Z,6.10
2018-02-12T23:57:18.208Z,6.83
2018-02-12T23:59:46.704Z,4.67
